Mexican Cut, RMBL, Colorado Weather observations

Data are for 10 minute period ending at time listed.
 Day   Time   Solar   Ave.   Ave.  Ave.  Vector  Max.   Baro.   Total    
  of    of     Rad.   Air    Rel.  Wind   Wind   Wind  Press.  Precip.   
Year   Day            Temp.  Hum.  Speed  Dir.   Gust                    
2016   (MST)  Kw/m2    F      %     mph   deg.    mph    mb.     in.     
-------------------------------------------------------------------------
 242   21:30   -0.00   37.4    92    4.3   155     7.7   683.4    0.00 
 242   21:40   0.00   38.3    83    3.0   175     6.7   683.4    0.00 
 242   21:50   -0.00   38.7    84    1.4   224     5.7   683.4    0.00 
 242   22:00   -0.00   38.1    88    2.2   150     4.7   683.5    0.00 
 242   22:10   -0.00   37.8    88    3.8   144     7.4   683.4    0.00 
 242   22:20   -0.00   38.6    85    4.1   147     8.0   683.4    0.00 
 242   22:30   -0.00   38.1    85    3.7   158     6.4   683.4    0.00 
 242   22:40   -0.00   38.5    79    4.1   152     8.0   683.4    0.00 
 242   22:50   -0.00   38.7    82    3.6   146     5.4   683.4    0.00 
 242   23:00   -0.00   38.0    84    4.2   154     7.4   683.4    0.00 
 242   23:10   -0.00   38.9    79    4.0   158     7.9   683.5    0.00 
 242   23:20   -0.00   39.4    78    4.3   154     7.2   683.4    0.00 
 242   23:30   -0.00   38.5    81    3.4   152     6.4   683.3    0.00 
 242   23:40   -0.00   38.2    82    1.8   141     4.4   683.3    0.00 
 242   23:50   -0.00   37.5    85    1.5   164     3.3   683.4    0.00 
 243    0:00   -0.00   36.9    87    2.0   171     3.3   683.4    0.00 
 243    0:10   -0.00   36.9    87    1.8   173     2.9   683.4    0.00 
 243    0:20   -0.00   36.7    87    1.5   158     3.3   683.4    0.00 
 243    0:30   -0.00   36.5    88    1.5   159     4.2   683.4    0.00 
 243    0:40   -0.00   37.5    83    2.6   156     5.3   683.3    0.00 
 243    0:50   0.00   38.8    77    3.2   176     6.5   683.2    0.00 
 243    1:00   -0.00   39.6    75    3.2   169     7.1   683.2    0.00 
 243    1:10   -0.00   39.6    74    3.6   166     8.3   683.3    0.00 
 243    1:20   -0.00   39.1    77    2.7   161     6.4   683.2    0.00 
 243    1:30   -0.00   39.6    73    3.5   172     7.1   683.1    0.00 
 243    1:40   -0.00   40.1    71    4.0   178     9.1   683.1    0.00 
 243    1:50   -0.00   39.8    73    2.6   174     5.6   683.1    0.00 
 243    2:00   -0.00   38.9    75    3.8   164     7.5   683.1    0.00 
 243    2:10   -0.00   39.7    72    4.3   163     8.1   683.2    0.01 
 243    2:20   -0.00   40.0    70    4.0   167     6.6   683.2    0.00 
 243    2:30   -0.00   40.1    70    4.7   167     7.7   683.1    0.00 
 243    2:40   -0.00   40.2    70    4.5   162     7.5   683.1    0.00 
 243    2:50   -0.00   39.6    72    3.8   161     7.1   683.1    0.00 
 243    3:00   -0.00   39.5    72    3.4   171     6.3   683.0    0.00 
 243    3:10   -0.00   39.9    71    4.3   168     7.7   683.0    0.00 
 243    3:20   -0.00   40.3    70    4.4   160     6.9   682.9    0.00 
 243    3:30   -0.00   40.1    70    4.9   161     8.2   682.9    0.00 
 243    3:40   -0.00   40.2    70    5.1   161     9.8   682.8    0.00 
 243    3:50   -0.00   40.1    71    4.8   159     7.9   682.8    0.00 
 243    4:00   -0.00   39.9    72    4.5   160     7.5   682.8    0.00 
 243    4:10   -0.00   39.8    72    3.8   163     7.7   682.8    0.00 
 243    4:20   -0.00   39.8    72    4.2   160     7.0   682.8    0.00 
 243    4:30   -0.00   39.8    73    4.3   158     7.7   682.8    0.00 
 243    4:40   -0.00   39.9    73    4.5   166     8.0   682.8    0.00 
 243    4:50   -0.00   40.5    72    5.2   172     9.7   682.8    0.00 
 243    5:00   -0.00   40.8    72    5.4   170     9.2   682.8    0.00 
 243    5:10   -0.00   40.6    73    4.6   162     8.8   682.9    0.00 
 243    5:20   -0.00   40.2    74    4.0   164     6.6   682.8    0.00 
 243    5:30   -0.00   40.0    74    4.3   164     8.3   682.8    0.00 
 243    5:40   0.00   40.1    74    4.6   166     7.9   682.8    0.00 
 243    5:50   0.01   39.9    75    3.4   172     6.1   682.9    0.00 
 243    6:00   0.01   39.5    76    4.0   168     6.8   682.9    0.00 
 243    6:10   0.06   40.5    74    4.1   169     8.3   683.0    0.00 
 243    6:20   0.10   42.5    70    4.7   148     7.8   682.9    0.00 
 243    6:30   0.13   44.1    66    4.3   146     7.9   683.0    0.00 
 243    6:40   0.17   44.9    66    3.1   138     8.0   683.0    0.00 
 243    6:50   0.21   45.6    67    2.8   133     5.8   682.9    0.00 
 243    7:00   0.24   46.2    65    3.4   148     8.0   682.8    0.00 
 243    7:10   0.28   46.6    64    3.7   148     9.3   682.8    0.00 
 243    7:20   0.32   46.4    63    2.8   164     8.3   682.7    0.00 
 243    7:30   0.36   47.0    62    2.8   141     5.8   682.9    0.00 
 243    7:40   0.40   47.6    62    1.9   138     4.9   683.0    0.00 
 243    7:50   0.43   47.3    61    3.3   116     7.7   683.1    0.00 
 243    8:00   0.47   47.3    62    3.3   121     7.7   683.2    0.00 
 243    8:10   0.51   47.5    63    3.9   117    10.2   683.4    0.00 
 243    8:20   0.55   46.8    64    3.7    89     8.2   683.4    0.00 
 243    8:30   0.58   47.3    64    3.9    92    10.5   683.4    0.00 
 243    8:40   0.61   46.7    64    4.9    90     9.6   683.4    0.00 
 243    8:50   0.65   47.3    64    3.8    91     8.3   683.5    0.00 
 243    9:00   0.68   47.6    64    3.8    87     9.1   683.5    0.00 
 243    9:10   0.71   47.7    64    3.7    82     9.0   683.6    0.00 
 243    9:20   0.74   48.4    64    2.9    71     9.5   683.6    0.00 
 243    9:30   0.77   48.8    63    3.7    88     9.0   683.6    0.00 
 243    9:40   0.80   48.4    62    4.3    70     9.2   683.6    0.00 
 243    9:50   0.83   49.4    60    3.7    88     6.7   683.7    0.00 
 243   10:00   0.89   49.6    60    3.3    74     8.7   683.8    0.00 
 243   10:10   0.90   50.8    60    3.3   128     9.2   683.8    0.00 
 243   10:20   0.92   51.4    58    3.5   119     9.1   683.8    0.00 
 243   10:30   0.94   51.0    58    3.3   103     9.3   683.8    0.00 
 243   10:40   0.99   51.4    58    3.5    98     8.0   683.8    0.00 
 243   10:50   0.99   52.6    56    1.9   162     5.8   683.8    0.00 
 243   11:00   1.02   53.8    54    3.2   132     9.6   683.8    0.00 
 243   11:10   0.99   53.7    53    2.5   175     7.8   683.7    0.00 
 243   11:20   1.04   52.9    52    3.4    94     8.6   683.7    0.00 
 243   11:30   1.07   53.8    51    3.2   164     8.6   683.7    0.00 
 243   11:40   0.91   53.9    50    3.6   181     8.7   683.6    0.00 
 243   11:50   0.71   54.2    49    3.3   125     7.7   683.6    0.00 
 243   12:00   0.36   52.1    52    4.1   136     8.9   683.6    0.00 
 243   12:10   0.47   51.7    54    3.7   116     6.8   683.5    0.00 
 243   12:20   0.78   51.8    53    3.0   118     7.4   683.5    0.00 
 243   12:30   1.14   54.6    49    3.5    94     7.2   683.3    0.00 
 243   12:40   0.61   53.6    49    3.6   101     8.7   683.3    0.00 
 243   12:50   0.61   52.6    52    3.8   112     7.8   683.3    0.00 
 243   13:00   0.80   52.8    51    2.3    81     6.1   683.3    0.00 
 243   13:10   0.94   54.1    49    2.8    80     6.8   683.1    0.00 
 243   13:20   1.00   54.6    48    3.4    91     7.9   683.1    0.00 
 243   13:30   0.90   56.4    45    2.7   156     5.3   683.0    0.00 
 243   13:40   1.01   57.3    41    2.2   167     5.1   682.9    0.00 
 243   13:50   0.73   57.3    42    2.2   126     9.8   682.8    0.00 
 243   14:00   0.45   55.1    43    2.5   113     5.0   682.8    0.00 
 243   14:10   0.93   55.8    44    2.4   129     4.6   682.6    0.00 
 243   14:20   0.90   56.4    44    2.6   108     7.8   682.6    0.00 
 243   14:30   0.66   56.6    43    3.3   120     6.7   682.6    0.00 
 243   14:40   1.05   57.2    42    3.9   102     7.9   682.6    0.00 
 243   14:50   0.76   56.3    44    5.2   100    12.8   682.6    0.00 
 243   15:00   0.18   54.1    49    5.0   114    13.3   682.6    0.00 
 243   15:10   0.10   52.3    52    4.7   121     9.9   682.5    0.00 
 243   15:20   0.08   51.6    56    3.7   137     8.4   682.7    0.00 
 243   15:30   0.05   51.1    59    1.6   141     5.0   682.8    0.00 
 243   15:40   0.04   51.0    60    1.0   303     3.3   682.7    0.00 
 243   15:50   0.02   50.3    60    3.1   311     6.2   682.8    0.00 
 243   16:00   0.02   48.6    66    3.9   287     6.8   682.9    0.00 
 243   16:10   0.04   47.9    69    3.1   273     5.8   683.0    0.00 
 243   16:20   0.09   48.5    67    3.5   233    12.0   682.9    0.00 
 243   16:30   0.14   48.7    61    4.2   176    10.1   682.9    0.00 
 243   16:40   0.16   49.4    60    4.2   154     9.1   682.8    0.00 
 243   16:50   0.19   49.9    58    3.0   154     7.2   682.7    0.00 
 243   17:00   0.17   50.5    56    3.7   177     8.3   682.7    0.00 
 243   17:10   0.03   50.4    57    1.1   136     4.0   682.8    0.00 
 243   17:20   0.02   49.3    66    0.6   115     1.8   682.8    0.00 
 243   17:30   0.01   48.5    66    2.5   299     7.0   683.0    0.00 
 243   17:40   0.00   47.1    69    6.3   281    10.8   683.1    0.01 
 243   17:50   0.00   45.7    74    5.8   278    11.8   683.1    0.00 
 243   18:00   0.00   45.1    76    4.0   264    10.0   683.2    0.00 
 243   18:10   0.00   45.0    78    5.0   297    10.7   683.3    0.01 
 243   18:20   0.00   43.4    87    3.9   295     8.5   683.3    0.01 
 243   18:30   0.00   43.8    82    5.1   241     9.9   683.3    0.01 
 243   18:40   0.00   43.6    82    3.9   159     7.8   682.8    0.00 
 243   18:50   0.00   43.0    88    1.4    86     4.2   682.8    0.01 
 243   19:00   -0.00   42.3    92    1.8   145     5.8   682.8    0.00 
 243   19:10   -0.00   42.3    91    1.2   190     3.6   682.9    0.00 
 243   19:20   -0.00   42.2    92    0.4   221     2.4   682.8    0.00 
 243   19:30   -0.00   42.2    93    1.4   144     2.8   682.8    0.00 
 243   19:40   -0.00   41.9    93    1.2   173     1.8   682.8    0.00 
 243   19:50   -0.00   41.6    91    1.8   169     5.3   682.8    0.00 
 243   20:00   -0.00   41.6    88    1.3   182     2.4   682.7    0.00 
 243   20:10   -0.00   41.7    88    0.8   206     1.7   682.9    0.00 
 243   20:20   -0.00   41.8    87    0.3   220     1.2   682.9    0.00 
 243   20:30   -0.00   41.4    86    1.7   197     2.6   682.9    0.00 
 243   20:40   -0.00   40.9    86    1.4   200     2.1   682.9    0.00 
 243   20:50   -0.00   40.9    86    0.5   205     1.4   682.9    0.00 
 243   21:00   -0.00   41.5    83    1.1   184     3.3   682.8    0.00 
 243   21:10   -0.00   41.3    85    1.7   170     3.7   683.0    0.00 
 243   21:20   -0.00   40.8    86    2.3   168     4.0   683.0    0.00 

Return to Mexican Cut, RMBL, Colorado graphs page.


Western Regional Climate Center,wrcc@dri.edu